createdAt,value
2018-04-22T00:02:40.882Z,14.67
2018-04-22T00:07:14.846Z,12.00
2018-04-22T00:11:48.042Z,12.87
2018-04-22T00:16:21.230Z,14.30
2018-04-22T00:20:55.210Z,14.33
2018-04-22T00:25:28.494Z,12.77
2018-04-22T00:30:01.683Z,12.20
2018-04-22T00:34:34.874Z,12.70
2018-04-22T00:39:08.829Z,11.87
2018-04-22T00:43:42.027Z,12.30
2018-04-22T00:48:15.213Z,13.07
2018-04-22T00:52:49.327Z,13.03
2018-04-22T00:57:23.290Z,13.03
2018-04-22T01:01:56.478Z,12.57
2018-04-22T01:06:30.451Z,13.07
2018-04-22T01:11:03.618Z,14.30
2018-04-22T01:15:36.807Z,13.60
2018-04-22T01:20:10.763Z,15.47
2018-04-22T01:24:43.956Z,14.03
2018-04-22T01:29:17.159Z,14.97
2018-04-22T01:33:50.323Z,13.30
2018-04-22T01:38:23.526Z,13.20
2018-04-22T01:42:56.718Z,13.40
2018-04-22T01:47:29.907Z,14.03
2018-04-22T01:52:03.075Z,14.13
2018-04-22T01:56:37.034Z,14.30
2018-04-22T02:01:10.574Z,14.43
2018-04-22T02:05:43.764Z,14.03
2018-04-22T02:10:16.955Z,13.87
2018-04-22T02:14:50.146Z,12.90
2018-04-22T02:19:23.309Z,14.40
2018-04-22T02:23:56.499Z,13.93
2018-04-22T02:28:29.687Z,14.50
2018-04-22T02:33:02.886Z,14.30
2018-04-22T02:37:36.058Z,14.47
2018-04-22T02:42:10.017Z,14.70
2018-04-22T02:46:43.204Z,14.67
2018-04-22T02:51:16.398Z,13.80
2018-04-22T02:55:50.355Z,13.70
2018-04-22T03:00:23.546Z,16.17
2018-04-22T03:04:56.737Z,14.10
2018-04-22T03:09:30.696Z,15.77
2018-04-22T03:14:03.881Z,15.43
2018-04-22T03:18:37.086Z,15.43
2018-04-22T03:23:10.250Z,14.77
2018-04-22T03:27:43.436Z,16.30
2018-04-22T03:32:16.626Z,16.17
2018-04-22T03:36:49.814Z,16.50
2018-04-22T03:41:23.017Z,15.90
2018-04-22T03:45:56.210Z,15.40
2018-04-22T03:50:30.138Z,16.17
2018-04-22T03:55:04.090Z,15.83
2018-04-22T03:59:37.284Z,15.97
2018-04-22T04:04:10.458Z,16.93
2018-04-22T04:08:43.647Z,16.67
2018-04-22T04:13:16.842Z,15.40
2018-04-22T04:23:06.649Z,16.80
2018-04-22T04:27:47.615Z,16.57
2018-04-22T04:32:20.778Z,15.63
2018-04-22T04:36:53.969Z,16.43
2018-04-22T04:41:27.153Z,15.03
2018-04-22T04:46:00.346Z,16.33
2018-04-22T04:50:33.557Z,15.27
2018-04-22T04:55:06.786Z,15.27
2018-04-22T04:59:39.973Z,15.83
2018-04-22T05:04:13.172Z,15.40
2018-04-22T05:08:46.359Z,15.60
2018-04-22T05:13:20.385Z,16.50
2018-04-22T05:17:54.338Z,15.93
2018-04-22T05:22:27.542Z,16.70
2018-04-22T05:27:00.817Z,16.07
2018-04-22T05:31:35.010Z,16.10
2018-04-22T05:36:08.209Z,16.63
2018-04-22T05:40:41.458Z,15.50
2018-04-22T05:45:15.417Z,15.93
2018-04-22T05:49:48.621Z,16.37
2018-04-22T05:54:21.943Z,15.70
2018-04-22T05:58:55.286Z,16.17
2018-04-22T06:03:29.246Z,16.77
2018-04-22T06:08:03.266Z,16.47
2018-04-22T06:12:37.223Z,16.40
2018-04-22T06:17:10.493Z,16.50
2018-04-22T06:21:43.706Z,16.70
2018-04-22T06:26:17.634Z,16.47
2018-04-22T06:30:51.586Z,19.30
2018-04-22T06:35:24.821Z,18.70
2018-04-22T06:39:58.143Z,19.33
2018-04-22T06:44:32.110Z,19.90
2018-04-22T06:49:05.321Z,19.55
2018-04-22T06:53:38.514Z,19.85
2018-04-22T06:58:11.714Z,22.70
2018-04-22T07:02:45.686Z,21.65
2018-04-22T07:07:18.855Z,21.17
2018-04-22T07:11:52.089Z,21.30
2018-04-22T07:16:25.278Z,19.48
2018-04-22T07:20:58.486Z,17.83
2018-04-22T07:25:31.654Z,16.52
2018-04-22T07:30:04.848Z,16.00
2018-04-22T07:34:38.049Z,15.45
2018-04-22T07:39:11.246Z,13.20
2018-04-22T07:43:45.253Z,13.85
2018-04-22T07:48:18.454Z,12.32
2018-04-22T07:52:51.643Z,10.88
2018-04-22T07:57:24.853Z,10.43
2018-04-22T08:01:58.062Z,9.40
2018-04-22T08:06:31.341Z,9.57
2018-04-22T08:11:05.274Z,8.70
2018-04-22T08:15:39.237Z,8.82
2018-04-22T08:20:12.430Z,8.10
2018-04-22T08:24:45.630Z,7.15
2018-04-22T08:29:18.843Z,7.70
2018-04-22T08:33:56.983Z,6.43
2018-04-22T08:38:30.135Z,6.68
2018-04-22T08:43:03.329Z,5.95
2018-04-22T08:47:37.615Z,6.40
2018-04-22T08:52:10.797Z,5.95
2018-04-22T08:56:44.811Z,5.62
2018-04-22T09:01:17.965Z,5.43
2018-04-22T09:05:51.154Z,5.25
2018-04-22T09:10:24.427Z,5.28
2018-04-22T09:14:58.351Z,5.20
2018-04-22T09:19:32.306Z,5.15
2018-04-22T09:24:05.494Z,5.43
2018-04-22T09:28:40.989Z,4.80
2018-04-22T09:33:16.667Z,4.82
2018-04-22T09:37:50.399Z,4.75
2018-04-22T09:42:23.633Z,4.65
2018-04-22T09:46:57.582Z,4.30
2018-04-22T09:51:32.823Z,4.50
2018-04-22T09:56:06.631Z,4.45
2018-04-22T10:00:40.299Z,4.68
2018-04-22T10:05:13.518Z,4.50
2018-04-22T10:09:46.763Z,4.40
2018-04-22T10:14:20.709Z,4.22
2018-04-22T10:18:53.898Z,5.10
2018-04-22T10:23:27.853Z,4.62
2018-04-22T10:28:01.475Z,4.85
2018-04-22T10:32:35.522Z,5.07
2018-04-22T10:37:09.425Z,4.87
2018-04-22T10:41:43.623Z,5.00
2018-04-22T10:46:18.647Z,5.12
2018-04-22T10:50:52.255Z,4.87
2018-04-22T10:55:25.424Z,4.57
2018-04-22T10:59:58.621Z,4.50
2018-04-22T11:04:31.786Z,4.45
2018-04-22T11:09:06.102Z,4.72
2018-04-22T11:13:39.442Z,4.62
2018-04-22T11:18:13.162Z,4.55
2018-04-22T11:22:46.390Z,4.25
2018-04-22T11:27:19.621Z,4.10
2018-04-22T11:31:52.846Z,4.25
2018-04-22T11:36:26.062Z,3.97
2018-04-22T11:40:59.250Z,4.30
2018-04-22T11:45:32.434Z,4.15
2018-04-22T11:50:05.783Z,4.37
2018-04-22T11:54:38.949Z,4.57
2018-04-22T11:59:12.136Z,4.15
2018-04-22T12:03:46.092Z,4.12
2018-04-22T12:08:19.682Z,4.28
2018-04-22T12:12:53.300Z,3.90
2018-04-22T12:17:26.508Z,3.50
2018-04-22T12:22:00.104Z,3.83
2018-04-22T12:26:33.729Z,3.70
2018-04-22T12:31:07.681Z,3.25
2018-04-22T12:35:40.863Z,3.60
2018-04-22T12:40:14.968Z,3.65
2018-04-22T12:44:48.153Z,3.72
2018-04-22T12:49:21.350Z,4.15
2018-04-22T12:53:54.571Z,4.40
2018-04-22T12:58:27.763Z,3.40
2018-04-22T13:03:00.947Z,3.20
2018-04-22T13:07:34.182Z,3.70
2018-04-22T13:12:07.422Z,3.60
2018-04-22T13:16:41.382Z,3.55
2018-04-22T13:21:14.547Z,3.90
2018-04-22T13:25:47.897Z,3.58
2018-04-22T13:30:21.269Z,3.53
2018-04-22T13:34:54.452Z,3.70
2018-04-22T13:39:27.651Z,3.53
2018-04-22T13:44:00.891Z,3.80
2018-04-22T13:48:34.838Z,3.72
2018-04-22T13:53:08.233Z,3.80
2018-04-22T13:57:42.177Z,3.85
2018-04-22T14:02:15.373Z,3.78
2018-04-22T14:06:49.304Z,4.03
2018-04-22T14:11:22.487Z,3.95
2018-04-22T14:15:56.842Z,3.75
2018-04-22T14:20:30.158Z,3.78
2018-04-22T14:25:03.602Z,3.35
2018-04-22T14:29:37.430Z,3.00
2018-04-22T14:34:10.752Z,2.92
2018-04-22T14:38:44.180Z,3.28
2018-04-22T14:43:17.497Z,3.40
2018-04-22T14:47:51.457Z,3.00
2018-04-22T14:52:24.642Z,3.00
2018-04-22T14:56:57.863Z,3.25
2018-04-22T15:01:31.151Z,3.35
2018-04-22T15:06:05.078Z,4.32
2018-04-22T15:10:39.523Z,3.40
2018-04-22T15:15:12.829Z,3.15
2018-04-22T15:19:46.044Z,3.45
2018-04-22T15:24:19.242Z,3.42
2018-04-22T15:28:52.426Z,3.12
2018-04-22T15:33:26.395Z,3.20
2018-04-22T15:37:59.560Z,3.65
2018-04-22T15:42:32.751Z,3.40
2018-04-22T15:47:05.998Z,3.50
2018-04-22T15:51:39.193Z,3.55
2018-04-22T15:56:13.147Z,4.32
2018-04-22T16:00:46.338Z,3.80
2018-04-22T16:05:19.503Z,3.40
2018-04-22T16:09:52.715Z,3.60
2018-04-22T16:14:25.960Z,3.83
2018-04-22T16:18:59.935Z,3.53
2018-04-22T16:23:33.095Z,3.70
2018-04-22T16:28:06.274Z,3.42
2018-04-22T16:32:40.234Z,4.00
2018-04-22T16:37:13.402Z,3.53
2018-04-22T16:41:47.345Z,3.95
2018-04-22T16:46:20.533Z,4.40
2018-04-22T16:50:54.486Z,3.50
2018-04-22T16:55:27.669Z,3.53
2018-04-22T17:00:01.621Z,3.40
2018-04-22T17:04:34.899Z,3.45
2018-04-22T17:09:08.849Z,4.05
2018-04-22T17:13:42.041Z,3.65
2018-04-22T17:18:15.228Z,3.72
2018-04-22T17:22:49.186Z,3.60
2018-04-22T17:27:22.391Z,3.60
2018-04-22T17:31:55.547Z,3.92
2018-04-22T17:36:28.747Z,4.32
2018-04-22T17:41:01.955Z,4.70
2018-04-22T17:45:35.115Z,6.28
2018-04-22T17:50:09.839Z,4.53
2018-04-22T17:54:43.041Z,5.80
2018-04-22T17:59:16.314Z,5.37
2018-04-22T18:03:49.481Z,4.62
2018-04-22T18:08:22.670Z,4.70
2018-04-22T18:12:55.858Z,4.57
2018-04-22T18:17:29.820Z,4.90
2018-04-22T18:22:03.027Z,5.97
2018-04-22T18:26:36.199Z,6.15
2018-04-22T18:31:10.150Z,4.87
2018-04-22T18:35:43.337Z,4.75
2018-04-22T18:40:16.526Z,6.15
2018-04-22T18:44:50.486Z,5.78
2018-04-22T18:49:23.673Z,5.65
2018-04-22T18:53:56.865Z,5.90
2018-04-22T18:58:30.875Z,6.50
2018-04-22T19:03:04.843Z,9.93
2018-04-22T19:07:44.181Z,7.37
2018-04-22T19:12:17.394Z,5.62
2018-04-22T19:16:50.592Z,5.30
2018-04-22T19:21:23.786Z,5.15
2018-04-22T19:25:58.094Z,4.85
2018-04-22T19:30:32.795Z,5.30
2018-04-22T19:35:06.035Z,5.05
2018-04-22T19:39:40.192Z,6.30
2018-04-22T19:44:13.410Z,5.30
2018-04-22T19:48:46.722Z,6.95
2018-04-22T19:53:20.216Z,5.70
2018-04-22T19:57:54.236Z,5.82
2018-04-22T20:02:27.771Z,8.73
2018-04-22T20:07:01.053Z,6.72
2018-04-22T20:11:35.014Z,7.10
2018-04-22T20:16:08.911Z,9.07
2018-04-22T20:20:42.265Z,8.35
2018-04-22T20:25:16.582Z,8.45
2018-04-22T20:29:51.338Z,7.03
2018-04-22T20:34:24.557Z,7.53
2018-04-22T20:38:58.388Z,6.57
2018-04-22T20:43:31.610Z,5.72
2018-04-22T20:48:05.657Z,6.95
2018-04-22T20:52:39.732Z,6.50
2018-04-22T20:57:12.902Z,7.15
2018-04-22T21:01:46.991Z,7.97
2018-04-22T21:06:20.443Z,6.50
2018-04-22T21:10:54.041Z,6.97
2018-04-22T21:15:27.226Z,6.55
2018-04-22T21:20:00.417Z,6.47
2018-04-22T21:24:33.607Z,6.45
2018-04-22T21:29:06.811Z,5.97
2018-04-22T21:33:40.003Z,5.90
2018-04-22T21:38:13.186Z,6.60
2018-04-22T21:42:47.134Z,5.85
2018-04-22T21:47:20.639Z,6.57
2018-04-22T21:51:53.855Z,5.93
2018-04-22T21:56:27.056Z,6.72
2018-04-22T22:01:00.274Z,7.00
2018-04-22T22:05:33.433Z,6.93
2018-04-22T22:10:06.627Z,6.97
2018-04-22T22:14:39.886Z,6.93
2018-04-22T22:19:13.050Z,6.85
2018-04-22T22:23:46.239Z,7.05
2018-04-22T22:28:19.438Z,7.00
2018-04-22T22:32:52.602Z,6.90
2018-04-22T22:37:25.798Z,7.43
2018-04-22T22:41:59.726Z,6.60
2018-04-22T22:46:33.695Z,7.55
2018-04-22T22:51:06.882Z,6.65
2018-04-22T22:55:40.070Z,6.95
2018-04-22T23:00:13.269Z,7.80
2018-04-22T23:04:46.494Z,8.13
2018-04-22T23:09:19.650Z,7.87
2018-04-22T23:13:52.842Z,7.57
2018-04-22T23:18:26.035Z,8.27
2018-04-22T23:22:59.274Z,7.12
2018-04-22T23:27:32.460Z,7.75
2018-04-22T23:32:05.662Z,7.37
2018-04-22T23:36:38.868Z,7.05
2018-04-22T23:41:12.026Z,7.12
2018-04-22T23:45:45.982Z,6.95
2018-04-22T23:50:19.469Z,7.53
2018-04-22T23:54:53.434Z,7.37
2018-04-22T23:59:26.586Z,7.43
